sensor_id;sensor_type;location;lat;lon;timestamp;temperature;humidity
10660;DHT22;5378;53.206;13.316;2023-02-28T00:01:52;-2.00;99.90
10660;DHT22;5378;53.206;13.316;2023-02-28T00:04:39;-1.80;99.90
10660;DHT22;5378;53.206;13.316;2023-02-28T00:07:26;-1.80;99.90
10660;DHT22;5378;53.206;13.316;2023-02-28T00:10:15;-1.80;99.90
10660;DHT22;5378;53.206;13.316;2023-02-28T00:13:06;-1.90;99.90
10660;DHT22;5378;53.206;13.316;2023-02-28T00:16:01;-1.80;99.90
10660;DHT22;5378;53.206;13.316;2023-02-28T00:18:49;-1.80;99.90
10660;DHT22;5378;53.206;13.316;2023-02-28T00:21:36;-1.90;99.90
10660;DHT22;5378;53.206;13.316;2023-02-28T00:24:26;-2.00;99.90
10660;DHT22;5378;53.206;13.316;2023-02-28T00:27:14;-2.00;99.90
10660;DHT22;5378;53.206;13.316;2023-02-28T00:30:04;-1.90;99.90
10660;DHT22;5378;53.206;13.316;2023-02-28T00:32:51;-2.00;99.90
10660;DHT22;5378;53.206;13.316;2023-02-28T00:35:38;-2.00;99.90
10660;DHT22;5378;53.206;13.316;2023-02-28T00:38:27;-2.00;99.90
10660;DHT22;5378;53.206;13.316;2023-02-28T00:41:15;-2.10;99.90
10660;DHT22;5378;53.206;13.316;2023-02-28T00:44:02;-2.00;99.90
10660;DHT22;5378;53.206;13.316;2023-02-28T00:46:52;-2.10;99.90
10660;DHT22;5378;53.206;13.316;2023-02-28T00:49:43;-2.10;99.90
10660;DHT22;5378;53.206;13.316;2023-02-28T00:52:30;-2.10;99.90
10660;DHT22;5378;53.206;13.316;2023-02-28T00:55:17;-2.10;99.90
10660;DHT22;5378;53.206;13.316;2023-02-28T00:58:04;-2.10;99.90
10660;DHT22;5378;53.206;13.316;2023-02-28T01:00:51;-2.10;99.90
10660;DHT22;5378;53.206;13.316;2023-02-28T01:03:40;-2.20;99.90
10660;DHT22;5378;53.206;13.316;2023-02-28T01:06:28;-2.20;99.90
10660;DHT22;5378;53.206;13.316;2023-02-28T01:09:15;-2.20;99.90
10660;DHT22;5378;53.206;13.316;2023-02-28T01:12:02;-2.10;99.90
10660;DHT22;5378;53.206;13.316;2023-02-28T01:14:49;-2.20;99.90
10660;DHT22;5378;53.206;13.316;2023-02-28T01:17:36;-2.20;99.90
10660;DHT22;5378;53.206;13.316;2023-02-28T01:20:25;-2.20;99.90
10660;DHT22;5378;53.206;13.316;2023-02-28T01:23:12;-2.10;99.90
10660;DHT22;5378;53.206;13.316;2023-02-28T01:26:04;-2.20;99.90
10660;DHT22;5378;53.206;13.316;2023-02-28T01:28:52;-2.30;99.90
10660;DHT22;5378;53.206;13.316;2023-02-28T01:31:39;-2.30;99.90
10660;DHT22;5378;53.206;13.316;2023-02-28T01:34:26;-2.30;99.90
10660;DHT22;5378;53.206;13.316;2023-02-28T01:37:15;-2.30;99.90
10660;DHT22;5378;53.206;13.316;2023-02-28T01:40:03;-2.40;99.90
10660;DHT22;5378;53.206;13.316;2023-02-28T01:42:50;-2.30;99.90
10660;DHT22;5378;53.206;13.316;2023-02-28T01:45:38;-2.30;99.90
10660;DHT22;5378;53.206;13.316;2023-02-28T01:48:27;-2.30;99.90
10660;DHT22;5378;53.206;13.316;2023-02-28T01:51:19;-2.30;99.90
10660;DHT22;5378;53.206;13.316;2023-02-28T01:54:13;-2.20;99.90
10660;DHT22;5378;53.206;13.316;2023-02-28T01:57:03;-2.30;99.90
10660;DHT22;5378;53.206;13.316;2023-02-28T01:59:52;-2.40;99.90
10660;DHT22;5378;53.206;13.316;2023-02-28T02:02:42;-2.40;99.90
10660;DHT22;5378;53.206;13.316;2023-02-28T02:05:30;-2.40;99.90
10660;DHT22;5378;53.206;13.316;2023-02-28T02:08:20;-2.30;99.90
10660;DHT22;5378;53.206;13.316;2023-02-28T02:11:18;-2.40;99.90
10660;DHT22;5378;53.206;13.316;2023-02-28T02:14:24;-2.40;99.90
10660;DHT22;5378;53.206;13.316;2023-02-28T02:17:20;-2.40;99.90
10660;DHT22;5378;53.206;13.316;2023-02-28T02:20:46;-2.40;99.90
10660;DHT22;5378;53.206;13.316;2023-02-28T02:24:10;-2.40;99.90
10660;DHT22;5378;53.206;13.316;2023-02-28T02:27:20;-2.40;99.90
10660;DHT22;5378;53.206;13.316;2023-02-28T02:30:32;-2.40;99.90
10660;DHT22;5378;53.206;13.316;2023-02-28T02:36:39;-2.50;99.90
10660;DHT22;5378;53.206;13.316;2023-02-28T02:39:32;-2.60;99.90
10660;DHT22;5378;53.206;13.316;2023-02-28T02:42:27;-2.50;99.90
10660;DHT22;5378;53.206;13.316;2023-02-28T02:45:19;-2.60;99.90
10660;DHT22;5378;53.206;13.316;2023-02-28T02:48:10;-2.60;99.90
10660;DHT22;5378;53.206;13.316;2023-02-28T02:51:01;-2.50;99.90
10660;DHT22;5378;53.206;13.316;2023-02-28T02:53:56;-2.60;99.90
10660;DHT22;5378;53.206;13.316;2023-02-28T02:56:47;-2.60;99.90
10660;DHT22;5378;53.206;13.316;2023-02-28T02:59:35;-2.60;99.90
10660;DHT22;5378;53.206;13.316;2023-02-28T03:02:23;-2.60;99.90
10660;DHT22;5378;53.206;13.316;2023-02-28T03:05:17;-2.60;99.90
10660;DHT22;5378;53.206;13.316;2023-02-28T03:08:06;-2.70;99.90
10660;DHT22;5378;53.206;13.316;2023-02-28T03:10:58;-2.60;99.90
10660;DHT22;5378;53.206;13.316;2023-02-28T03:13:58;-2.60;99.90
10660;DHT22;5378;53.206;13.316;2023-02-28T03:20:12;-2.60;99.90
10660;DHT22;5378;53.206;13.316;2023-02-28T03:23:14;-2.60;99.90
10660;DHT22;5378;53.206;13.316;2023-02-28T03:26:10;-2.60;99.90
10660;DHT22;5378;53.206;13.316;2023-02-28T03:29:03;-2.50;99.90
10660;DHT22;5378;53.206;13.316;2023-02-28T03:31:54;-2.60;99.90
10660;DHT22;5378;53.206;13.316;2023-02-28T03:34:48;-2.70;99.90
10660;DHT22;5378;53.206;13.316;2023-02-28T03:37:39;-2.80;99.90
10660;DHT22;5378;53.206;13.316;2023-02-28T03:40:30;-2.80;99.90
10660;DHT22;5378;53.206;13.316;2023-02-28T03:43:26;-2.80;99.90
10660;DHT22;5378;53.206;13.316;2023-02-28T03:46:17;-2.70;99.90
10660;DHT22;5378;53.206;13.316;2023-02-28T03:49:11;-2.80;99.90
10660;DHT22;5378;53.206;13.316;2023-02-28T03:52:02;-2.70;99.90
10660;DHT22;5378;53.206;13.316;2023-02-28T03:54:55;-2.80;99.90
10660;DHT22;5378;53.206;13.316;2023-02-28T03:57:50;-2.90;99.90
10660;DHT22;5378;53.206;13.316;2023-02-28T04:00:45;-2.80;99.90
10660;DHT22;5378;53.206;13.316;2023-02-28T04:03:33;-2.90;99.90
10660;DHT22;5378;53.206;13.316;2023-02-28T04:06:22;-2.90;99.90
10660;DHT22;5378;53.206;13.316;2023-02-28T04:09:11;-2.90;99.90
10660;DHT22;5378;53.206;13.316;2023-02-28T04:11:57;-2.90;99.90
10660;DHT22;5378;53.206;13.316;2023-02-28T04:14:44;-3.00;99.90
10660;DHT22;5378;53.206;13.316;2023-02-28T04:17:32;-2.90;99.90
10660;DHT22;5378;53.206;13.316;2023-02-28T04:20:19;-3.00;99.90
10660;DHT22;5378;53.206;13.316;2023-02-28T04:23:06;-3.00;99.90
10660;DHT22;5378;53.206;13.316;2023-02-28T04:25:55;-3.00;99.90
10660;DHT22;5378;53.206;13.316;2023-02-28T04:28:42;-2.90;99.90
10660;DHT22;5378;53.206;13.316;2023-02-28T04:31:29;-3.00;99.90
10660;DHT22;5378;53.206;13.316;2023-02-28T04:34:17;-3.00;99.90
10660;DHT22;5378;53.206;13.316;2023-02-28T04:37:05;-2.90;99.90
10660;DHT22;5378;53.206;13.316;2023-02-28T04:39:58;-2.90;99.90
10660;DHT22;5378;53.206;13.316;2023-02-28T04:42:46;-3.00;99.90
10660;DHT22;5378;53.206;13.316;2023-02-28T04:45:33;-3.00;99.90
10660;DHT22;5378;53.206;13.316;2023-02-28T04:48:20;-3.00;99.90
10660;DHT22;5378;53.206;13.316;2023-02-28T04:51:10;-3.10;99.90
10660;DHT22;5378;53.206;13.316;2023-02-28T04:53:57;-3.20;99.90
10660;DHT22;5378;53.206;13.316;2023-02-28T04:56:44;-3.10;99.90
10660;DHT22;5378;53.206;13.316;2023-02-28T04:59:32;-3.10;99.90
10660;DHT22;5378;53.206;13.316;2023-02-28T05:02:19;-3.10;99.90
10660;DHT22;5378;53.206;13.316;2023-02-28T05:05:07;-3.20;99.90
10660;DHT22;5378;53.206;13.316;2023-02-28T05:07:56;-3.30;99.90
10660;DHT22;5378;53.206;13.316;2023-02-28T05:10:43;-3.20;99.90
10660;DHT22;5378;53.206;13.316;2023-02-28T05:13:30;-3.10;99.90
10660;DHT22;5378;53.206;13.316;2023-02-28T05:16:17;-3.10;99.90
10660;DHT22;5378;53.206;13.316;2023-02-28T05:19:05;-3.10;99.90
10660;DHT22;5378;53.206;13.316;2023-02-28T05:21:53;-3.20;99.90
10660;DHT22;5378;53.206;13.316;2023-02-28T05:24:42;-3.30;99.90
10660;DHT22;5378;53.206;13.316;2023-02-28T05:27:29;-3.40;99.90
10660;DHT22;5378;53.206;13.316;2023-02-28T05:30:16;-3.30;99.90
10660;DHT22;5378;53.206;13.316;2023-02-28T05:33:03;-3.40;99.90
10660;DHT22;5378;53.206;13.316;2023-02-28T05:35:50;-3.40;99.90
10660;DHT22;5378;53.206;13.316;2023-02-28T05:38:38;-3.50;99.90
10660;DHT22;5378;53.206;13.316;2023-02-28T05:41:26;-3.40;99.90
10660;DHT22;5378;53.206;13.316;2023-02-28T05:44:15;-3.40;99.90
10660;DHT22;5378;53.206;13.316;2023-02-28T05:47:02;-3.50;99.90
10660;DHT22;5378;53.206;13.316;2023-02-28T05:49:49;-3.50;99.90
10660;DHT22;5378;53.206;13.316;2023-02-28T05:52:37;-3.50;99.90
10660;DHT22;5378;53.206;13.316;2023-02-28T05:55:24;-3.40;99.90
10660;DHT22;5378;53.206;13.316;2023-02-28T05:58:12;-3.40;99.90
10660;DHT22;5378;53.206;13.316;2023-02-28T06:01:00;-3.50;99.90
10660;DHT22;5378;53.206;13.316;2023-02-28T06:04:07;-3.50;99.90
10660;DHT22;5378;53.206;13.316;2023-02-28T06:06:59;-3.50;99.90
10660;DHT22;5378;53.206;13.316;2023-02-28T06:09:47;-3.60;99.90
10660;DHT22;5378;53.206;13.316;2023-02-28T06:12:34;-3.60;99.90
10660;DHT22;5378;53.206;13.316;2023-02-28T06:15:23;-3.60;99.90
10660;DHT22;5378;53.206;13.316;2023-02-28T06:18:10;-3.50;99.90
10660;DHT22;5378;53.206;13.316;2023-02-28T06:20:57;-3.40;99.90
10660;DHT22;5378;53.206;13.316;2023-02-28T06:23:44;-3.40;99.90
10660;DHT22;5378;53.206;13.316;2023-02-28T06:26:31;-3.30;99.90
10660;DHT22;5378;53.206;13.316;2023-02-28T06:29:18;-3.20;99.90
10660;DHT22;5378;53.206;13.316;2023-02-28T06:32:07;-3.10;99.90
10660;DHT22;5378;53.206;13.316;2023-02-28T06:34:54;-3.10;99.90
10660;DHT22;5378;53.206;13.316;2023-02-28T06:37:43;-3.10;99.90
10660;DHT22;5378;53.206;13.316;2023-02-28T06:40:30;-3.00;99.90
10660;DHT22;5378;53.206;13.316;2023-02-28T06:43:19;-3.00;99.90
10660;DHT22;5378;53.206;13.316;2023-02-28T06:46:08;-3.00;99.90
10660;DHT22;5378;53.206;13.316;2023-02-28T06:48:58;-3.10;99.90
10660;DHT22;5378;53.206;13.316;2023-02-28T06:51:45;-2.90;99.90
10660;DHT22;5378;53.206;13.316;2023-02-28T06:54:32;-2.90;99.90
10660;DHT22;5378;53.206;13.316;2023-02-28T06:57:19;-2.90;99.90
10660;DHT22;5378;53.206;13.316;2023-02-28T07:00:09;-2.80;99.90
10660;DHT22;5378;53.206;13.316;2023-02-28T07:02:56;-2.90;99.90
10660;DHT22;5378;53.206;13.316;2023-02-28T07:05:44;-2.80;99.90
10660;DHT22;5378;53.206;13.316;2023-02-28T07:08:32;-2.80;99.90
10660;DHT22;5378;53.206;13.316;2023-02-28T07:11:19;-2.60;99.90
10660;DHT22;5378;53.206;13.316;2023-02-28T07:14:08;-2.50;99.90
10660;DHT22;5378;53.206;13.316;2023-02-28T07:16:56;-2.50;99.90
10660;DHT22;5378;53.206;13.316;2023-02-28T07:19:42;-2.50;99.90
10660;DHT22;5378;53.206;13.316;2023-02-28T07:22:31;-2.40;99.90
10660;DHT22;5378;53.206;13.316;2023-02-28T07:25:18;-2.30;99.90
10660;DHT22;5378;53.206;13.316;2023-02-28T07:28:06;-2.30;99.90
10660;DHT22;5378;53.206;13.316;2023-02-28T07:30:53;-2.20;99.90
10660;DHT22;5378;53.206;13.316;2023-02-28T07:33:41;-2.20;99.90
10660;DHT22;5378;53.206;13.316;2023-02-28T07:36:28;-2.10;99.90
10660;DHT22;5378;53.206;13.316;2023-02-28T07:39:16;-2.10;99.90
10660;DHT22;5378;53.206;13.316;2023-02-28T07:42:04;-2.00;99.90
10660;DHT22;5378;53.206;13.316;2023-02-28T07:44:52;-1.90;99.90
10660;DHT22;5378;53.206;13.316;2023-02-28T07:47:39;-1.80;99.90
10660;DHT22;5378;53.206;13.316;2023-02-28T07:50:26;-1.80;99.90
10660;DHT22;5378;53.206;13.316;2023-02-28T07:53:15;-1.70;99.90
10660;DHT22;5378;53.206;13.316;2023-02-28T07:56:05;-1.60;99.90
10660;DHT22;5378;53.206;13.316;2023-02-28T07:58:53;-1.50;99.90
10660;DHT22;5378;53.206;13.316;2023-02-28T08:01:40;-1.30;99.90
10660;DHT22;5378;53.206;13.316;2023-02-28T08:04:27;-1.10;99.90
10660;DHT22;5378;53.206;13.316;2023-02-28T08:07:15;-0.70;99.90
10660;DHT22;5378;53.206;13.316;2023-02-28T08:10:02;-0.50;99.90
10660;DHT22;5378;53.206;13.316;2023-02-28T08:12:52;-0.40;99.90
10660;DHT22;5378;53.206;13.316;2023-02-28T08:15:41;-0.30;99.90
10660;DHT22;5378;53.206;13.316;2023-02-28T08:18:28;-0.30;99.90
10660;DHT22;5378;53.206;13.316;2023-02-28T08:21:15;-0.30;99.90
10660;DHT22;5378;53.206;13.316;2023-02-28T08:24:03;-0.20;99.90
10660;DHT22;5378;53.206;13.316;2023-02-28T08:26:50;-0.20;99.90
10660;DHT22;5378;53.206;13.316;2023-02-28T08:29:39;-0.10;99.90
10660;DHT22;5378;53.206;13.316;2023-02-28T08:32:26;0.20;99.90
10660;DHT22;5378;53.206;13.316;2023-02-28T08:35:15;0.60;99.90
10660;DHT22;5378;53.206;13.316;2023-02-28T08:38:02;1.30;99.90
10660;DHT22;5378;53.206;13.316;2023-02-28T08:40:50;2.20;99.90
10660;DHT22;5378;53.206;13.316;2023-02-28T08:43:37;3.00;99.90
10660;DHT22;5378;53.206;13.316;2023-02-28T08:46:26;3.70;99.90
10660;DHT22;5378;53.206;13.316;2023-02-28T08:49:13;4.20;99.90
10660;DHT22;5378;53.206;13.316;2023-02-28T08:52:00;4.40;99.90
10660;DHT22;5378;53.206;13.316;2023-02-28T08:54:47;4.50;99.90
10660;DHT22;5378;53.206;13.316;2023-02-28T08:57:35;4.80;99.90
10660;DHT22;5378;53.206;13.316;2023-02-28T09:00:22;5.10;99.90
10660;DHT22;5378;53.206;13.316;2023-02-28T09:03:11;5.00;99.90
10660;DHT22;5378;53.206;13.316;2023-02-28T09:05:59;4.70;99.90
10660;DHT22;5378;53.206;13.316;2023-02-28T09:08:47;4.50;99.90
10660;DHT22;5378;53.206;13.316;2023-02-28T09:11:34;4.30;99.90
10660;DHT22;5378;53.206;13.316;2023-02-28T09:14:22;4.10;99.90
10660;DHT22;5378;53.206;13.316;2023-02-28T09:17:09;4.20;99.90
10660;DHT22;5378;53.206;13.316;2023-02-28T09:19:58;4.00;99.90
10660;DHT22;5378;53.206;13.316;2023-02-28T09:22:45;3.70;99.90
10660;DHT22;5378;53.206;13.316;2023-02-28T09:25:32;3.50;99.90
10660;DHT22;5378;53.206;13.316;2023-02-28T09:28:20;3.30;99.90
10660;DHT22;5378;53.206;13.316;2023-02-28T09:31:12;3.10;99.90
10660;DHT22;5378;53.206;13.316;2023-02-28T09:33:59;2.90;99.90
10660;DHT22;5378;53.206;13.316;2023-02-28T09:36:48;2.80;99.90
10660;DHT22;5378;53.206;13.316;2023-02-28T09:39:37;2.90;99.90
10660;DHT22;5378;53.206;13.316;2023-02-28T09:42:31;2.90;99.90
10660;DHT22;5378;53.206;13.316;2023-02-28T09:45:24;2.90;99.90
10660;DHT22;5378;53.206;13.316;2023-02-28T09:48:15;2.90;99.90
10660;DHT22;5378;53.206;13.316;2023-02-28T09:51:05;2.90;99.90
10660;DHT22;5378;53.206;13.316;2023-02-28T09:53:59;2.90;99.90
10660;DHT22;5378;53.206;13.316;2023-02-28T09:56:49;2.90;99.90
10660;DHT22;5378;53.206;13.316;2023-02-28T09:59:57;3.00;99.90
10660;DHT22;5378;53.206;13.316;2023-02-28T10:02:56;3.00;99.90
10660;DHT22;5378;53.206;13.316;2023-02-28T10:05:51;2.90;99.90
10660;DHT22;5378;53.206;13.316;2023-02-28T10:08:45;2.90;99.90
10660;DHT22;5378;53.206;13.316;2023-02-28T10:11:39;2.90;99.90
10660;DHT22;5378;53.206;13.316;2023-02-28T10:14:28;3.00;99.90
10660;DHT22;5378;53.206;13.316;2023-02-28T10:17:18;3.10;99.90
10660;DHT22;5378;53.206;13.316;2023-02-28T10:20:12;3.00;99.90
10660;DHT22;5378;53.206;13.316;2023-02-28T10:23:05;3.00;99.90
10660;DHT22;5378;53.206;13.316;2023-02-28T10:25:59;3.00;99.90
10660;DHT22;5378;53.206;13.316;2023-02-28T10:28:48;3.00;99.90
10660;DHT22;5378;53.206;13.316;2023-02-28T10:31:35;3.10;99.90
10660;DHT22;5378;53.206;13.316;2023-02-28T10:34:22;3.10;99.90
10660;DHT22;5378;53.206;13.316;2023-02-28T10:37:11;3.10;99.90
10660;DHT22;5378;53.206;13.316;2023-02-28T10:39:59;3.10;99.90
10660;DHT22;5378;53.206;13.316;2023-02-28T10:42:55;3.10;99.90
10660;DHT22;5378;53.206;13.316;2023-02-28T10:45:55;3.10;99.90
10660;DHT22;5378;53.206;13.316;2023-02-28T10:48:45;3.10;99.90
10660;DHT22;5378;53.206;13.316;2023-02-28T10:51:36;3.00;99.90
10660;DHT22;5378;53.206;13.316;2023-02-28T10:54:28;2.90;99.90
10660;DHT22;5378;53.206;13.316;2023-02-28T10:57:18;3.00;99.90
10660;DHT22;5378;53.206;13.316;2023-02-28T11:00:14;3.00;99.90
10660;DHT22;5378;53.206;13.316;2023-02-28T11:03:24;2.90;99.90
10660;DHT22;5378;53.206;13.316;2023-02-28T11:06:16;3.10;99.90
10660;DHT22;5378;53.206;13.316;2023-02-28T11:09:17;3.10;99.90
10660;DHT22;5378;53.206;13.316;2023-02-28T11:12:06;3.10;99.90
10660;DHT22;5378;53.206;13.316;2023-02-28T11:14:57;3.20;99.90
10660;DHT22;5378;53.206;13.316;2023-02-28T11:17:53;3.20;99.90
10660;DHT22;5378;53.206;13.316;2023-02-28T11:20:42;3.10;99.90
10660;DHT22;5378;53.206;13.316;2023-02-28T11:23:37;3.10;99.90
10660;DHT22;5378;53.206;13.316;2023-02-28T11:26:42;3.30;99.90
10660;DHT22;5378;53.206;13.316;2023-02-28T11:29:31;3.40;99.90
10660;DHT22;5378;53.206;13.316;2023-02-28T11:32:20;3.40;99.90
10660;DHT22;5378;53.206;13.316;2023-02-28T11:35:17;3.50;99.90
10660;DHT22;5378;53.206;13.316;2023-02-28T11:38:11;3.40;99.90
10660;DHT22;5378;53.206;13.316;2023-02-28T11:41:08;3.40;99.90
10660;DHT22;5378;53.206;13.316;2023-02-28T11:44:23;3.50;99.90
10660;DHT22;5378;53.206;13.316;2023-02-28T11:47:20;3.80;99.90
10660;DHT22;5378;53.206;13.316;2023-02-28T11:50:34;3.70;99.90
10660;DHT22;5378;53.206;13.316;2023-02-28T11:53:39;3.70;99.90
10660;DHT22;5378;53.206;13.316;2023-02-28T11:56:32;3.70;99.90
10660;DHT22;5378;53.206;13.316;2023-02-28T11:59:33;3.80;99.90
10660;DHT22;5378;53.206;13.316;2023-02-28T12:02:26;3.90;99.90
10660;DHT22;5378;53.206;13.316;2023-02-28T12:05:24;4.00;99.90
10660;DHT22;5378;53.206;13.316;2023-02-28T12:08:30;4.10;99.90
10660;DHT22;5378;53.206;13.316;2023-02-28T12:11:32;4.10;99.90
10660;DHT22;5378;53.206;13.316;2023-02-28T12:14:47;4.00;99.90
10660;DHT22;5378;53.206;13.316;2023-02-28T12:17:50;4.00;99.90
10660;DHT22;5378;53.206;13.316;2023-02-28T12:20:44;4.00;99.90
10660;DHT22;5378;53.206;13.316;2023-02-28T12:23:57;4.10;99.90
10660;DHT22;5378;53.206;13.316;2023-02-28T12:26:48;3.90;99.90
10660;DHT22;5378;53.206;13.316;2023-02-28T12:29:42;4.00;99.90
10660;DHT22;5378;53.206;13.316;2023-02-28T12:32:33;4.10;99.90
10660;DHT22;5378;53.206;13.316;2023-02-28T12:35:24;4.20;99.90
10660;DHT22;5378;53.206;13.316;2023-02-28T12:38:15;4.20;99.90
10660;DHT22;5378;53.206;13.316;2023-02-28T12:41:11;4.30;99.90
10660;DHT22;5378;53.206;13.316;2023-02-28T12:44:03;4.50;99.90
10660;DHT22;5378;53.206;13.316;2023-02-28T12:46:55;4.70;99.90
10660;DHT22;5378;53.206;13.316;2023-02-28T12:49:48;4.80;99.90
10660;DHT22;5378;53.206;13.316;2023-02-28T12:52:41;4.90;99.90
10660;DHT22;5378;53.206;13.316;2023-02-28T12:55:37;4.90;99.90
10660;DHT22;5378;53.206;13.316;2023-02-28T12:58:33;5.00;99.90
10660;DHT22;5378;53.206;13.316;2023-02-28T13:01:40;5.00;99.90
10660;DHT22;5378;53.206;13.316;2023-02-28T13:04:52;5.00;99.90
10660;DHT22;5378;53.206;13.316;2023-02-28T13:08:08;5.10;99.90
10660;DHT22;5378;53.206;13.316;2023-02-28T13:10:59;5.00;99.90
10660;DHT22;5378;53.206;13.316;2023-02-28T13:13:57;5.00;99.90
10660;DHT22;5378;53.206;13.316;2023-02-28T13:17:04;5.00;99.90
10660;DHT22;5378;53.206;13.316;2023-02-28T13:19:58;5.00;99.90
10660;DHT22;5378;53.206;13.316;2023-02-28T13:22:47;5.00;99.90
10660;DHT22;5378;53.206;13.316;2023-02-28T13:25:52;5.10;99.90
10660;DHT22;5378;53.206;13.316;2023-02-28T13:29:28;5.20;99.90
10660;DHT22;5378;53.206;13.316;2023-02-28T13:32:33;5.10;99.90
10660;DHT22;5378;53.206;13.316;2023-02-28T13:35:37;5.10;99.90
10660;DHT22;5378;53.206;13.316;2023-02-28T13:38:35;5.10;99.90
10660;DHT22;5378;53.206;13.316;2023-02-28T13:41:44;5.10;99.90
10660;DHT22;5378;53.206;13.316;2023-02-28T13:48:01;5.00;99.90
10660;DHT22;5378;53.206;13.316;2023-02-28T13:50:49;4.90;99.90
10660;DHT22;5378;53.206;13.316;2023-02-28T13:53:56;4.80;99.90
10660;DHT22;5378;53.206;13.316;2023-02-28T13:56:49;4.80;99.90
10660;DHT22;5378;53.206;13.316;2023-02-28T13:59:49;4.80;99.90
10660;DHT22;5378;53.206;13.316;2023-02-28T14:02:46;4.90;99.90
10660;DHT22;5378;53.206;13.316;2023-02-28T14:05:36;4.90;99.90
10660;DHT22;5378;53.206;13.316;2023-02-28T14:08:24;4.80;99.90
10660;DHT22;5378;53.206;13.316;2023-02-28T14:11:25;4.90;99.90
10660;DHT22;5378;53.206;13.316;2023-02-28T14:17:30;4.80;99.90
10660;DHT22;5378;53.206;13.316;2023-02-28T14:20:17;4.80;99.90
10660;DHT22;5378;53.206;13.316;2023-02-28T14:23:10;4.80;99.90
10660;DHT22;5378;53.206;13.316;2023-02-28T14:26:10;4.80;99.90
10660;DHT22;5378;53.206;13.316;2023-02-28T14:29:14;4.90;99.90
10660;DHT22;5378;53.206;13.316;2023-02-28T14:32:10;4.90;99.90
10660;DHT22;5378;53.206;13.316;2023-02-28T14:35:12;4.80;99.90
10660;DHT22;5378;53.206;13.316;2023-02-28T14:38:08;4.80;99.90
10660;DHT22;5378;53.206;13.316;2023-02-28T14:41:04;4.80;99.90
10660;DHT22;5378;53.206;13.316;2023-02-28T14:43:54;4.80;99.90
10660;DHT22;5378;53.206;13.316;2023-02-28T14:46:43;4.80;99.90
10660;DHT22;5378;53.206;13.316;2023-02-28T14:49:34;4.90;99.90
10660;DHT22;5378;53.206;13.316;2023-02-28T14:52:24;4.90;99.90
10660;DHT22;5378;53.206;13.316;2023-02-28T14:55:17;4.90;99.90
10660;DHT22;5378;53.206;13.316;2023-02-28T14:58:06;4.90;99.90
10660;DHT22;5378;53.206;13.316;2023-02-28T15:00:55;5.00;99.90
10660;DHT22;5378;53.206;13.316;2023-02-28T15:03:42;4.90;99.90
10660;DHT22;5378;53.206;13.316;2023-02-28T15:06:31;4.80;99.90
10660;DHT22;5378;53.206;13.316;2023-02-28T15:09:18;4.70;99.90
10660;DHT22;5378;53.206;13.316;2023-02-28T15:12:13;4.70;99.90
10660;DHT22;5378;53.206;13.316;2023-02-28T15:15:01;4.70;99.90
10660;DHT22;5378;53.206;13.316;2023-02-28T15:17:51;4.60;99.90
10660;DHT22;5378;53.206;13.316;2023-02-28T15:20:41;4.90;99.90
10660;DHT22;5378;53.206;13.316;2023-02-28T15:23:29;5.00;99.90
10660;DHT22;5378;53.206;13.316;2023-02-28T15:26:19;5.00;99.90
10660;DHT22;5378;53.206;13.316;2023-02-28T15:29:13;5.00;99.90
10660;DHT22;5378;53.206;13.316;2023-02-28T15:32:03;5.10;99.90
10660;DHT22;5378;53.206;13.316;2023-02-28T15:34:51;5.00;99.90
10660;DHT22;5378;53.206;13.316;2023-02-28T15:37:44;5.10;99.90
10660;DHT22;5378;53.206;13.316;2023-02-28T15:40:36;5.00;99.90
10660;DHT22;5378;53.206;13.316;2023-02-28T15:43:25;4.80;99.90
10660;DHT22;5378;53.206;13.316;2023-02-28T15:46:14;4.90;99.90
10660;DHT22;5378;53.206;13.316;2023-02-28T15:49:02;4.90;99.90
10660;DHT22;5378;53.206;13.316;2023-02-28T15:51:51;4.80;99.90
10660;DHT22;5378;53.206;13.316;2023-02-28T15:54:39;4.70;99.90
10660;DHT22;5378;53.206;13.316;2023-02-28T15:57:28;4.70;99.90
10660;DHT22;5378;53.206;13.316;2023-02-28T16:00:20;4.70;99.90
10660;DHT22;5378;53.206;13.316;2023-02-28T16:03:25;4.90;99.90
10660;DHT22;5378;53.206;13.316;2023-02-28T16:06:40;4.70;99.90
10660;DHT22;5378;53.206;13.316;2023-02-28T16:09:28;4.60;99.90
10660;DHT22;5378;53.206;13.316;2023-02-28T16:12:20;4.50;99.90
10660;DHT22;5378;53.206;13.316;2023-02-28T16:15:19;4.40;99.90
10660;DHT22;5378;53.206;13.316;2023-02-28T16:18:08;4.40;99.90
10660;DHT22;5378;53.206;13.316;2023-02-28T16:20:58;4.20;99.90
10660;DHT22;5378;53.206;13.316;2023-02-28T16:23:45;4.20;99.90
10660;DHT22;5378;53.206;13.316;2023-02-28T16:26:32;4.20;99.90
10660;DHT22;5378;53.206;13.316;2023-02-28T16:29:24;4.00;99.90
10660;DHT22;5378;53.206;13.316;2023-02-28T16:32:14;3.80;99.90
10660;DHT22;5378;53.206;13.316;2023-02-28T16:35:03;3.70;99.90
10660;DHT22;5378;53.206;13.316;2023-02-28T16:37:52;3.60;99.90
10660;DHT22;5378;53.206;13.316;2023-02-28T16:40:40;3.50;99.90
10660;DHT22;5378;53.206;13.316;2023-02-28T16:43:27;3.40;99.90
10660;DHT22;5378;53.206;13.316;2023-02-28T16:46:16;3.30;99.90
10660;DHT22;5378;53.206;13.316;2023-02-28T16:49:03;3.20;99.90
10660;DHT22;5378;53.206;13.316;2023-02-28T16:51:50;3.00;99.90
10660;DHT22;5378;53.206;13.316;2023-02-28T16:54:39;2.80;99.90
10660;DHT22;5378;53.206;13.316;2023-02-28T16:57:26;2.70;99.90
10660;DHT22;5378;53.206;13.316;2023-02-28T17:00:14;2.60;99.90
10660;DHT22;5378;53.206;13.316;2023-02-28T17:03:01;2.40;99.90
10660;DHT22;5378;53.206;13.316;2023-02-28T17:05:51;2.20;99.90
10660;DHT22;5378;53.206;13.316;2023-02-28T17:08:38;2.00;99.90
10660;DHT22;5378;53.206;13.316;2023-02-28T17:11:26;2.00;99.90
10660;DHT22;5378;53.206;13.316;2023-02-28T17:14:14;1.90;99.90
10660;DHT22;5378;53.206;13.316;2023-02-28T17:17:01;1.90;99.90
10660;DHT22;5378;53.206;13.316;2023-02-28T17:19:48;1.80;99.90
10660;DHT22;5378;53.206;13.316;2023-02-28T17:22:35;1.80;99.90
10660;DHT22;5378;53.206;13.316;2023-02-28T17:25:23;1.80;99.90
10660;DHT22;5378;53.206;13.316;2023-02-28T17:28:12;1.70;99.90
10660;DHT22;5378;53.206;13.316;2023-02-28T17:30:59;1.60;99.90
10660;DHT22;5378;53.206;13.316;2023-02-28T17:33:46;1.40;99.90
10660;DHT22;5378;53.206;13.316;2023-02-28T17:36:33;1.30;99.90
10660;DHT22;5378;53.206;13.316;2023-02-28T17:39:22;1.30;99.90
10660;DHT22;5378;53.206;13.316;2023-02-28T17:42:10;1.30;99.90
10660;DHT22;5378;53.206;13.316;2023-02-28T17:44:59;1.20;99.90
10660;DHT22;5378;53.206;13.316;2023-02-28T17:47:48;1.20;99.90
10660;DHT22;5378;53.206;13.316;2023-02-28T17:50:36;1.10;99.90
10660;DHT22;5378;53.206;13.316;2023-02-28T17:53:23;1.10;99.90
10660;DHT22;5378;53.206;13.316;2023-02-28T17:56:12;1.00;99.90
10660;DHT22;5378;53.206;13.316;2023-02-28T17:58:59;0.90;99.90
10660;DHT22;5378;53.206;13.316;2023-02-28T18:01:48;0.80;99.90
10660;DHT22;5378;53.206;13.316;2023-02-28T18:04:35;0.80;99.90
10660;DHT22;5378;53.206;13.316;2023-02-28T18:07:22;0.80;99.90
10660;DHT22;5378;53.206;13.316;2023-02-28T18:10:14;0.70;99.90
10660;DHT22;5378;53.206;13.316;2023-02-28T18:13:04;0.60;99.90
10660;DHT22;5378;53.206;13.316;2023-02-28T18:15:52;0.60;99.90
10660;DHT22;5378;53.206;13.316;2023-02-28T18:18:40;0.60;99.90
10660;DHT22;5378;53.206;13.316;2023-02-28T18:21:28;0.60;99.90
10660;DHT22;5378;53.206;13.316;2023-02-28T18:24:16;0.50;99.90
10660;DHT22;5378;53.206;13.316;2023-02-28T18:27:04;0.50;99.90